createdAt,value
2022-10-24T00:00:07.575Z,18.69
2022-10-24T00:02:10.631Z,18.79
2022-10-24T00:04:13.241Z,18.97
2022-10-24T00:06:17.575Z,18.88
2022-10-24T00:08:20.539Z,18.82
2022-10-24T00:10:23.301Z,18.89
2022-10-24T00:12:25.896Z,18.73
2022-10-24T00:14:29.406Z,18.58
2022-10-24T00:16:32.032Z,18.64
2022-10-24T00:18:34.875Z,18.43
2022-10-24T00:20:38.388Z,18.49
2022-10-24T00:22:42.610Z,18.34
2022-10-24T00:24:45.413Z,18.21
2022-10-24T00:26:47.969Z,18.11
2022-10-24T00:28:50.601Z,18.26
2022-10-24T00:30:53.909Z,18.17
2022-10-24T00:32:57.333Z,18.19
2022-10-24T00:34:59.949Z,18.10
2022-10-24T00:37:03.406Z,18.15
2022-10-24T00:39:07.334Z,18.00
2022-10-24T00:41:15.005Z,18.06
2022-10-24T00:43:21.859Z,18.11
2022-10-24T00:45:49.991Z,17.95
2022-10-24T00:47:52.662Z,18.08
2022-10-24T00:50:00.749Z,17.86
2022-10-24T00:52:05.707Z,17.92
2022-10-24T00:54:13.613Z,17.98
2022-10-24T00:56:19.712Z,18.01
2022-10-24T00:58:24.072Z,17.94
2022-10-24T01:00:35.088Z,17.77
2022-10-24T01:02:39.000Z,17.86
2022-10-24T01:04:41.575Z,17.95
2022-10-24T01:06:55.098Z,17.83
2022-10-24T01:09:08.462Z,17.83
2022-10-24T01:11:25.664Z,17.63
2022-10-24T01:13:36.140Z,17.88
2022-10-24T01:15:45.994Z,17.55
2022-10-24T01:17:57.851Z,17.48
2022-10-24T01:20:33.641Z,17.40
2022-10-24T01:22:46.857Z,17.38
2022-10-24T01:25:07.284Z,17.33
2022-10-24T01:27:42.842Z,17.33
2022-10-24T01:29:52.228Z,17.35
2022-10-24T01:31:59.816Z,17.41
2022-10-24T01:34:07.666Z,17.39
2022-10-24T01:36:14.613Z,17.24
2022-10-24T01:38:20.617Z,17.42
2022-10-24T01:40:28.955Z,17.47
2022-10-24T01:42:34.759Z,17.48
2022-10-24T01:44:42.864Z,17.38
2022-10-24T01:46:51.601Z,17.34
2022-10-24T01:48:58.593Z,17.33
2022-10-24T01:51:04.202Z,17.22
2022-10-24T01:53:10.922Z,17.17
2022-10-24T01:55:13.954Z,17.14
2022-10-24T01:57:16.847Z,17.47
2022-10-24T01:59:43.248Z,17.43
2022-10-24T02:01:47.301Z,17.50
2022-10-24T02:03:55.328Z,17.35
2022-10-24T02:06:04.350Z,17.42
2022-10-24T02:08:11.556Z,17.34
2022-10-24T02:10:20.133Z,17.38
2022-10-24T02:12:25.258Z,17.48
2022-10-24T02:14:34.781Z,17.67
2022-10-24T02:16:37.538Z,17.61
2022-10-24T02:18:41.716Z,17.49
2022-10-24T02:20:52.346Z,17.42
2022-10-24T02:23:04.076Z,17.35
2022-10-24T02:25:10.271Z,17.27
2022-10-24T02:27:18.409Z,17.23
2022-10-24T02:29:26.397Z,17.29
2022-10-24T02:31:33.818Z,17.21
2022-10-24T02:33:39.773Z,17.15
2022-10-24T02:35:45.030Z,17.08
2022-10-24T02:37:52.073Z,17.02
2022-10-24T02:39:56.367Z,16.91
2022-10-24T02:42:00.427Z,16.87
2022-10-24T02:44:05.134Z,16.86
2022-10-24T02:46:10.656Z,16.96
2022-10-24T02:48:17.600Z,17.11
2022-10-24T02:50:20.631Z,17.05
2022-10-24T02:52:25.071Z,17.14
2022-10-24T02:54:27.665Z,17.28
2022-10-24T02:56:30.816Z,17.07
2022-10-24T02:58:33.446Z,17.04
2022-10-24T03:00:36.124Z,17.03
2022-10-24T03:02:38.709Z,16.93
2022-10-24T03:04:41.297Z,17.04
2022-10-24T03:06:46.442Z,17.03
2022-10-24T03:08:50.371Z,17.15
2022-10-24T03:10:53.111Z,17.01
2022-10-24T03:12:55.718Z,16.90
2022-10-24T03:14:58.303Z,16.85
2022-10-24T03:17:00.948Z,16.83
2022-10-24T03:19:03.530Z,16.80
2022-10-24T03:21:06.176Z,16.83
2022-10-24T03:23:08.823Z,16.83
2022-10-24T03:25:12.780Z,16.79
2022-10-24T03:27:15.894Z,16.89
2022-10-24T03:29:18.461Z,16.76
2022-10-24T03:31:21.062Z,16.71
2022-10-24T03:33:24.075Z,16.74
2022-10-24T03:35:26.679Z,16.63
2022-10-24T03:37:29.709Z,16.59
2022-10-24T03:39:32.305Z,16.55
2022-10-24T03:41:36.233Z,16.55
2022-10-24T03:43:38.811Z,16.51
2022-10-24T03:45:41.381Z,16.51
2022-10-24T03:47:43.985Z,16.51
2022-10-24T03:49:46.693Z,16.49
2022-10-24T03:51:49.259Z,16.54
2022-10-24T03:53:51.832Z,16.56
2022-10-24T03:55:54.905Z,16.54
2022-10-24T03:57:59.023Z,16.64
2022-10-24T04:00:01.628Z,16.57
2022-10-24T04:02:05.610Z,16.58
2022-10-24T04:04:08.189Z,16.59
2022-10-24T04:06:10.820Z,16.79
2022-10-24T04:08:13.418Z,16.71
2022-10-24T04:10:16.066Z,16.69
2022-10-24T04:12:18.635Z,16.70
2022-10-24T04:14:22.540Z,16.68
2022-10-24T04:16:27.335Z,16.73
2022-10-24T04:18:29.949Z,16.66
2022-10-24T04:20:32.564Z,16.65
2022-10-24T04:22:35.342Z,16.63
2022-10-24T04:24:39.373Z,16.64
2022-10-24T04:26:42.319Z,16.69
2022-10-24T04:28:46.761Z,16.87
2022-10-24T04:30:55.611Z,16.76
2022-10-24T04:32:58.293Z,16.97
2022-10-24T04:35:01.833Z,16.79
2022-10-24T04:37:04.839Z,16.75
2022-10-24T04:39:07.654Z,16.68
2022-10-24T04:41:12.136Z,16.84
2022-10-24T04:43:15.171Z,16.77
2022-10-24T04:45:18.015Z,16.70
2022-10-24T04:47:22.006Z,16.66
2022-10-24T04:49:24.582Z,16.79
2022-10-24T04:51:27.540Z,16.70
2022-10-24T04:53:30.194Z,16.75
2022-10-24T04:55:32.827Z,16.69
2022-10-24T04:57:35.437Z,16.79
2022-10-24T04:59:38.085Z,16.68
2022-10-24T05:01:40.700Z,16.65
2022-10-24T05:03:44.739Z,16.66
2022-10-24T05:05:47.807Z,16.80
2022-10-24T05:07:50.388Z,16.76
2022-10-24T05:09:52.951Z,16.75
2022-10-24T05:11:56.488Z,16.73
2022-10-24T05:13:59.220Z,16.73
2022-10-24T05:16:01.903Z,17.04
2022-10-24T05:18:04.752Z,16.85
2022-10-24T05:20:10.293Z,16.81
2022-10-24T05:22:12.901Z,16.79
2022-10-24T05:24:17.570Z,16.77
2022-10-24T05:26:20.204Z,16.75
2022-10-24T05:28:22.910Z,16.73
2022-10-24T05:30:25.728Z,16.69
2022-10-24T05:32:28.576Z,16.64
2022-10-24T05:34:31.248Z,16.61
2022-10-24T05:36:35.293Z,16.57
2022-10-24T05:38:37.884Z,16.56
2022-10-24T05:40:40.471Z,16.54
2022-10-24T05:42:43.387Z,16.51
2022-10-24T05:44:48.436Z,16.51
2022-10-24T05:46:51.042Z,16.51
2022-10-24T05:48:53.726Z,16.50
2022-10-24T05:50:58.387Z,16.46
2022-10-24T05:53:02.327Z,16.45
2022-10-24T05:55:07.974Z,16.44
2022-10-24T05:57:11.165Z,16.40
2022-10-24T05:59:13.703Z,16.35
2022-10-24T06:01:16.350Z,16.34
2022-10-24T06:03:18.960Z,16.35
2022-10-24T06:05:22.291Z,16.34
2022-10-24T06:07:24.904Z,16.32
2022-10-24T06:09:28.845Z,16.32
2022-10-24T06:11:31.578Z,16.30
2022-10-24T06:13:36.212Z,16.31
2022-10-24T06:15:39.045Z,16.35
2022-10-24T06:17:41.681Z,16.37
2022-10-24T06:21:56.547Z,16.43
2022-10-24T06:23:59.412Z,16.46
2022-10-24T06:26:03.396Z,16.45
2022-10-24T06:30:11.934Z,16.44
2022-10-24T06:32:14.595Z,16.46
2022-10-24T06:34:17.259Z,16.44
2022-10-24T06:36:19.925Z,16.41
2022-10-24T06:38:22.552Z,16.37
2022-10-24T06:40:25.195Z,16.33
2022-10-24T06:42:30.195Z,16.42
2022-10-24T06:44:32.818Z,16.34
2022-10-24T06:46:35.362Z,16.25
2022-10-24T06:48:38.814Z,16.22
2022-10-24T06:50:41.589Z,16.21
2022-10-24T06:52:44.321Z,16.20
2022-10-24T06:54:46.886Z,16.19
2022-10-24T06:56:49.769Z,16.18
2022-10-24T06:58:53.680Z,16.17
2022-10-24T07:00:56.264Z,16.16
2022-10-24T07:02:59.279Z,16.15
2022-10-24T07:05:01.980Z,16.14
2022-10-24T07:07:04.554Z,16.14
2022-10-24T07:09:10.280Z,16.12
2022-10-24T07:11:15.805Z,16.12
2022-10-24T07:13:18.359Z,16.11
2022-10-24T07:15:22.258Z,16.11
2022-10-24T07:17:24.870Z,16.13
2022-10-24T07:19:27.419Z,16.15
2022-10-24T07:21:31.662Z,16.13
2022-10-24T07:23:35.154Z,16.16
2022-10-24T07:25:39.221Z,16.24
2022-10-24T07:27:42.033Z,16.25
2022-10-24T07:29:44.584Z,16.25
2022-10-24T07:31:49.160Z,16.31
2022-10-24T07:33:52.787Z,16.30
2022-10-24T07:35:55.832Z,16.21
2022-10-24T07:37:58.610Z,16.17
2022-10-24T07:40:01.247Z,16.22
2022-10-24T07:42:04.557Z,16.23
2022-10-24T07:44:07.177Z,16.23
2022-10-24T07:46:11.299Z,16.23
2022-10-24T07:48:15.333Z,16.19
2022-10-24T07:50:18.194Z,16.19
2022-10-24T07:52:20.754Z,16.19
2022-10-24T07:54:24.406Z,16.21
2022-10-24T07:56:27.723Z,16.21
2022-10-24T07:58:30.605Z,16.22
2022-10-24T08:00:33.777Z,16.23
2022-10-24T08:02:36.448Z,16.22
2022-10-24T08:04:40.729Z,16.21
2022-10-24T08:06:46.271Z,16.22
2022-10-24T08:08:48.982Z,16.21
2022-10-24T08:10:51.612Z,16.22
2022-10-24T08:12:54.288Z,16.23
2022-10-24T08:14:56.927Z,16.25
2022-10-24T08:16:59.456Z,16.27
2022-10-24T08:19:02.082Z,16.30
2022-10-24T08:21:09.114Z,16.35
2022-10-24T08:23:11.767Z,16.40
2022-10-24T08:25:14.652Z,16.35
2022-10-24T08:27:17.234Z,16.34
2022-10-24T08:29:22.460Z,16.33
2022-10-24T08:31:26.451Z,16.31
2022-10-24T08:33:29.173Z,16.33
2022-10-24T08:35:31.744Z,16.50
2022-10-24T08:39:45.772Z,16.53
2022-10-24T08:41:51.269Z,16.82
2022-10-24T08:43:54.213Z,16.81
2022-10-24T08:46:09.702Z,16.75
2022-10-24T08:48:16.052Z,16.59
2022-10-24T08:50:24.007Z,16.93
2022-10-24T08:52:33.068Z,16.79
2022-10-24T08:54:42.185Z,16.71
2022-10-24T08:56:45.054Z,16.64
2022-10-24T08:58:48.165Z,16.72
2022-10-24T09:00:53.457Z,16.66
2022-10-24T09:03:02.186Z,16.78
2022-10-24T09:05:19.929Z,16.65
2022-10-24T09:09:35.444Z,16.64
2022-10-24T09:11:46.534Z,16.59
2022-10-24T09:13:49.596Z,16.57
2022-10-24T09:15:52.257Z,16.50
2022-10-24T09:17:56.909Z,16.55
2022-10-24T09:20:04.207Z,16.49
2022-10-24T09:22:08.902Z,16.49
2022-10-24T09:24:24.688Z,16.64
2022-10-24T09:26:31.035Z,16.63
2022-10-24T09:28:38.824Z,16.57
2022-10-24T09:30:41.771Z,16.53
2022-10-24T09:32:44.775Z,16.47
2022-10-24T09:34:47.816Z,16.53
2022-10-24T09:36:50.574Z,16.56
2022-10-24T09:38:53.719Z,16.53
2022-10-24T09:40:58.408Z,16.50
2022-10-24T09:43:05.666Z,16.47
2022-10-24T09:45:28.665Z,16.45
2022-10-24T09:47:31.319Z,16.46
2022-10-24T09:49:37.518Z,16.44
2022-10-24T09:51:45.320Z,16.45
2022-10-24T09:54:01.734Z,16.46
2022-10-24T09:56:12.675Z,16.56
2022-10-24T09:58:21.394Z,16.54
2022-10-24T10:00:28.196Z,16.50
2022-10-24T10:02:34.453Z,16.64
2022-10-24T10:04:37.800Z,16.55
2022-10-24T10:06:44.608Z,16.54
2022-10-24T10:08:51.134Z,16.54
2022-10-24T10:11:02.918Z,16.56
2022-10-24T10:13:09.629Z,16.52
2022-10-24T10:15:26.750Z,16.55
2022-10-24T10:17:31.925Z,16.52
2022-10-24T10:19:38.205Z,16.65
2022-10-24T10:21:56.288Z,16.58
2022-10-24T10:24:01.928Z,16.55
2022-10-24T10:26:07.961Z,16.55
2022-10-24T10:28:20.472Z,16.54
2022-10-24T10:30:23.835Z,16.54
2022-10-24T10:32:32.760Z,16.63
2022-10-24T10:34:40.933Z,16.58
2022-10-24T10:36:52.700Z,16.54
2022-10-24T10:39:02.132Z,16.70
2022-10-24T10:41:16.300Z,16.71
2022-10-24T10:43:32.138Z,16.63
2022-10-24T10:45:40.335Z,16.70
2022-10-24T10:47:52.588Z,16.77
2022-10-24T10:49:59.317Z,16.73
2022-10-24T10:52:07.074Z,16.85
2022-10-24T10:54:21.115Z,16.82
2022-10-24T10:56:32.168Z,16.85
2022-10-24T10:58:47.839Z,16.83
2022-10-24T11:00:58.022Z,16.84
2022-10-24T11:03:16.211Z,16.90
2022-10-24T11:05:32.480Z,16.87
2022-10-24T11:07:44.983Z,16.89
2022-10-24T11:09:50.350Z,16.90
2022-10-24T11:11:58.795Z,16.91
2022-10-24T11:14:23.372Z,16.89
2022-10-24T11:16:29.612Z,16.87
2022-10-24T11:18:36.175Z,17.00
2022-10-24T11:20:45.414Z,17.16
2022-10-24T11:22:54.203Z,17.11
2022-10-24T11:25:01.923Z,17.13
2022-10-24T11:27:11.667Z,17.03
2022-10-24T11:29:25.179Z,17.14
2022-10-24T11:31:32.931Z,17.12
2022-10-24T11:33:41.957Z,17.04
2022-10-24T11:36:01.052Z,17.07
2022-10-24T11:38:10.500Z,16.94
2022-10-24T11:40:16.131Z,16.89
2022-10-24T11:42:27.199Z,16.87
2022-10-24T11:44:47.316Z,16.81
2022-10-24T11:46:59.373Z,16.82
2022-10-24T11:49:13.654Z,16.80
2022-10-24T11:51:22.743Z,16.80
2022-10-24T11:53:48.215Z,16.81
2022-10-24T11:55:56.175Z,16.80
2022-10-24T11:58:01.160Z,16.81
2022-10-24T12:00:05.623Z,16.82
2022-10-24T12:02:55.800Z,16.82
2022-10-24T12:05:25.608Z,16.80
2022-10-24T12:07:58.412Z,16.79
2022-10-24T12:10:27.330Z,16.80
2022-10-24T12:12:54.658Z,16.81
2022-10-24T12:15:22.245Z,16.86
2022-10-24T12:17:38.273Z,16.87
2022-10-24T12:19:43.503Z,16.89
2022-10-24T12:21:51.001Z,16.89
2022-10-24T12:23:56.979Z,16.91
2022-10-24T12:26:05.085Z,16.92
2022-10-24T12:28:19.256Z,16.94
2022-10-24T12:30:24.999Z,16.93
2022-10-24T12:32:39.041Z,16.97
2022-10-24T12:34:49.154Z,16.99
2022-10-24T12:37:04.737Z,17.01
2022-10-24T12:39:09.780Z,17.04
2022-10-24T12:41:38.075Z,17.08
2022-10-24T12:43:42.804Z,17.11
2022-10-24T12:45:45.423Z,17.12
2022-10-24T12:48:29.102Z,17.11
2022-10-24T12:51:06.762Z,17.10
2022-10-24T12:53:31.426Z,17.11
2022-10-24T12:56:03.759Z,17.11
2022-10-24T12:58:23.146Z,17.13
2022-10-24T13:00:29.494Z,17.14
2022-10-24T13:02:52.031Z,17.15
2022-10-24T13:05:06.489Z,17.13
2022-10-24T13:07:34.555Z,17.14
2022-10-24T13:09:50.835Z,17.16
2022-10-24T13:12:05.545Z,17.19
2022-10-24T13:14:38.300Z,17.22
2022-10-24T13:16:47.360Z,17.27
2022-10-24T13:19:04.984Z,17.33
2022-10-24T13:21:15.344Z,17.35
2022-10-24T13:23:22.289Z,17.40
2022-10-24T13:25:34.372Z,17.39
2022-10-24T13:27:36.982Z,17.35
2022-10-24T13:30:19.070Z,17.33
2022-10-24T13:32:32.893Z,17.33
2022-10-24T13:34:43.645Z,17.33
2022-10-24T13:36:47.889Z,17.36
2022-10-24T13:38:54.174Z,17.35
2022-10-24T13:40:56.953Z,17.39
2022-10-24T13:43:06.829Z,17.39
2022-10-24T13:45:24.022Z,17.40
2022-10-24T13:47:33.012Z,17.39
2022-10-24T13:49:43.195Z,17.37
2022-10-24T13:51:50.294Z,17.37
2022-10-24T13:53:55.912Z,17.38
2022-10-24T13:56:10.353Z,17.36
2022-10-24T13:58:18.413Z,17.33
2022-10-24T14:00:24.046Z,17.30
2022-10-24T14:02:32.549Z,17.28
2022-10-24T14:04:36.342Z,17.27
2022-10-24T14:06:39.019Z,17.25
2022-10-24T14:08:53.984Z,17.33
2022-10-24T14:11:06.118Z,17.24
2022-10-24T14:13:16.820Z,17.23
2022-10-24T14:15:22.207Z,17.33
2022-10-24T14:17:26.981Z,17.39
2022-10-24T14:19:33.707Z,17.26
2022-10-24T14:21:42.376Z,17.23
2022-10-24T14:23:55.033Z,17.17
2022-10-24T14:26:02.485Z,17.13
2022-10-24T14:28:16.264Z,17.12
2022-10-24T14:30:21.070Z,17.13
2022-10-24T14:32:25.029Z,17.07
2022-10-24T14:34:31.426Z,17.17
2022-10-24T14:36:39.906Z,17.14
2022-10-24T14:38:43.342Z,17.16
2022-10-24T14:40:47.421Z,17.19
2022-10-24T14:42:50.388Z,17.21
2022-10-24T14:44:58.305Z,17.30
2022-10-24T14:47:04.927Z,17.30
2022-10-24T14:49:30.348Z,17.42
2022-10-24T14:51:39.292Z,17.47
2022-10-24T14:53:44.827Z,17.58
2022-10-24T14:55:51.532Z,17.57
2022-10-24T14:57:55.288Z,17.79
2022-10-24T14:59:59.638Z,17.73
2022-10-24T15:02:05.147Z,17.87
2022-10-24T15:04:07.960Z,17.75
2022-10-24T15:06:13.614Z,17.79
2022-10-24T15:08:25.948Z,17.67
2022-10-24T15:10:37.284Z,17.60
2022-10-24T15:12:41.982Z,17.53
2022-10-24T15:14:48.991Z,17.58
2022-10-24T15:16:51.620Z,17.58
2022-10-24T15:18:59.489Z,17.51
2022-10-24T15:21:06.241Z,17.43
2022-10-24T15:23:21.095Z,17.40
2022-10-24T15:25:28.585Z,17.34
2022-10-24T15:27:40.174Z,17.30
2022-10-24T15:29:42.763Z,17.39
2022-10-24T15:31:49.069Z,17.35
2022-10-24T15:33:51.671Z,17.32
2022-10-24T15:35:54.259Z,17.30
2022-10-24T15:37:59.108Z,17.20
2022-10-24T15:40:03.988Z,17.34
2022-10-24T15:42:06.644Z,17.22
2022-10-24T15:44:16.784Z,17.31
2022-10-24T15:46:19.374Z,17.30
2022-10-24T15:48:21.962Z,17.21
2022-10-24T15:50:25.330Z,17.16
2022-10-24T15:52:27.905Z,17.23
2022-10-24T15:54:30.540Z,17.45
2022-10-24T15:56:33.497Z,17.17
2022-10-24T15:58:36.137Z,17.28
2022-10-24T16:00:40.481Z,17.09
2022-10-24T16:02:45.689Z,16.95
2022-10-24T16:04:48.641Z,16.86
2022-10-24T16:06:52.567Z,16.83
2022-10-24T16:08:55.824Z,16.73
2022-10-24T16:10:58.558Z,16.66
2022-10-24T16:13:01.162Z,16.61
2022-10-24T16:15:03.877Z,16.71
2022-10-24T16:17:07.878Z,16.58
2022-10-24T16:19:10.561Z,16.64
2022-10-24T16:21:17.611Z,16.77
2022-10-24T16:23:20.369Z,16.59
2022-10-24T16:25:25.259Z,16.58
2022-10-24T16:27:27.849Z,16.49
2022-10-24T16:29:30.889Z,16.42
2022-10-24T16:31:34.004Z,16.39
2022-10-24T16:33:37.898Z,16.31
2022-10-24T16:35:41.358Z,16.24
2022-10-24T16:37:43.918Z,16.20
2022-10-24T16:39:46.500Z,16.17
2022-10-24T16:41:49.131Z,16.18
2022-10-24T16:43:55.066Z,16.16
2022-10-24T16:45:58.979Z,16.09
2022-10-24T16:48:01.613Z,16.05
2022-10-24T16:50:06.795Z,16.07
2022-10-24T16:52:09.425Z,16.03
2022-10-24T16:54:12.009Z,15.97
2022-10-24T16:56:16.587Z,15.94
2022-10-24T16:58:20.393Z,15.89
2022-10-24T17:00:24.076Z,15.84
2022-10-24T17:02:26.725Z,15.82
2022-10-24T17:04:33.521Z,15.75
2022-10-24T17:06:37.762Z,15.72
2022-10-24T17:08:40.551Z,15.70
2022-10-24T17:10:43.149Z,15.64
2022-10-24T17:12:47.692Z,15.58
2022-10-24T17:14:50.596Z,15.54
2022-10-24T17:16:53.416Z,15.51
2022-10-24T17:19:05.923Z,15.49
2022-10-24T17:21:20.541Z,15.44
2022-10-24T17:23:25.056Z,15.42
2022-10-24T17:25:29.095Z,15.42
2022-10-24T17:27:32.155Z,15.42
2022-10-24T17:29:35.240Z,15.41
2022-10-24T17:31:37.962Z,15.41
2022-10-24T17:33:41.178Z,15.37
2022-10-24T17:35:48.094Z,15.38
2022-10-24T17:38:03.182Z,15.37
2022-10-24T17:40:15.451Z,15.37
2022-10-24T17:42:18.481Z,15.38
2022-10-24T17:44:21.942Z,15.39
2022-10-24T17:46:24.912Z,15.41
2022-10-24T17:48:27.792Z,15.42
2022-10-24T17:50:30.481Z,15.45
2022-10-24T17:52:33.078Z,15.41
2022-10-24T17:54:36.073Z,15.38
2022-10-24T17:56:41.190Z,15.51
2022-10-24T17:58:43.803Z,15.62
2022-10-24T18:00:46.714Z,15.58
2022-10-24T18:02:50.744Z,15.60
2022-10-24T18:04:53.328Z,15.56
2022-10-24T18:06:55.909Z,15.55
2022-10-24T18:08:58.681Z,15.53
2022-10-24T18:11:02.064Z,15.54
2022-10-24T18:13:09.169Z,15.51
2022-10-24T18:15:13.868Z,15.51
2022-10-24T18:17:16.451Z,15.50
2022-10-24T18:19:19.103Z,15.49
2022-10-24T18:21:24.314Z,15.47
2022-10-24T18:23:26.941Z,15.48
2022-10-24T18:25:29.936Z,15.47
2022-10-24T18:27:32.739Z,15.46
2022-10-24T18:29:37.028Z,15.43
2022-10-24T18:31:39.615Z,15.41
2022-10-24T18:33:42.993Z,15.39
2022-10-24T18:35:45.617Z,15.37
2022-10-24T18:37:48.257Z,15.37
2022-10-24T18:39:51.657Z,15.41
2022-10-24T18:42:01.602Z,15.43
2022-10-24T18:44:21.888Z,15.44
2022-10-24T18:46:26.825Z,15.43
2022-10-24T18:48:30.015Z,15.43
2022-10-24T18:50:32.995Z,15.41
2022-10-24T18:52:45.793Z,15.40
2022-10-24T18:54:59.465Z,15.38
2022-10-24T18:57:02.376Z,15.33
2022-10-24T18:59:11.580Z,15.34
2022-10-24T19:01:26.558Z,15.31
2022-10-24T19:03:35.692Z,15.25
2022-10-24T19:05:43.467Z,15.24
2022-10-24T19:07:47.272Z,15.25
2022-10-24T19:09:50.045Z,15.25
2022-10-24T19:11:53.612Z,15.25
2022-10-24T19:13:56.481Z,15.25
2022-10-24T19:16:01.016Z,15.26
2022-10-24T19:18:03.725Z,15.27
2022-10-24T19:20:14.691Z,15.25
2022-10-24T19:22:17.278Z,15.25
2022-10-24T19:24:20.124Z,15.27
2022-10-24T19:26:22.750Z,15.25
2022-10-24T19:28:25.339Z,15.24
2022-10-24T19:30:27.879Z,15.24
2022-10-24T19:32:30.526Z,15.24
2022-10-24T19:34:34.756Z,15.24
2022-10-24T19:36:39.181Z,15.22
2022-10-24T19:38:41.914Z,15.23
2022-10-24T19:40:48.130Z,15.24
2022-10-24T19:42:50.751Z,15.23
2022-10-24T19:44:56.201Z,15.22
2022-10-24T19:46:58.776Z,15.24
2022-10-24T19:49:01.353Z,15.21
2022-10-24T19:51:07.629Z,15.22
2022-10-24T19:53:14.216Z,15.24
2022-10-24T19:55:16.903Z,15.23
2022-10-24T19:57:19.471Z,15.23
2022-10-24T19:59:22.509Z,15.20
2022-10-24T20:01:28.028Z,15.16
2022-10-24T20:03:30.879Z,15.17
2022-10-24T20:05:33.758Z,15.15
2022-10-24T20:07:36.323Z,15.15
2022-10-24T20:09:40.236Z,15.17
2022-10-24T20:11:42.844Z,15.15
2022-10-24T20:13:45.457Z,15.15
2022-10-24T20:15:53.465Z,15.20
2022-10-24T20:17:56.098Z,15.19
2022-10-24T20:19:58.663Z,15.15
2022-10-24T20:22:02.466Z,15.14
2022-10-24T20:24:05.928Z,15.14
2022-10-24T20:26:11.805Z,15.15
2022-10-24T20:28:14.415Z,15.16
2022-10-24T20:30:17.011Z,15.20
2022-10-24T20:32:20.211Z,15.22
2022-10-24T20:34:22.772Z,15.33
2022-10-24T20:36:25.415Z,15.35
2022-10-24T20:38:28.421Z,15.46
2022-10-24T20:40:31.004Z,15.37
2022-10-24T20:42:37.220Z,15.02
2022-10-24T20:44:39.760Z,15.05
2022-10-24T20:46:42.325Z,14.70
2022-10-24T20:48:44.893Z,14.58
2022-10-24T20:50:47.627Z,14.42
2022-10-24T20:52:52.927Z,14.25
2022-10-24T20:54:55.461Z,14.18
2022-10-24T20:56:58.015Z,14.10
2022-10-24T20:59:02.004Z,14.01
2022-10-24T21:01:08.823Z,13.99
2022-10-24T21:03:12.242Z,13.91
2022-10-24T21:05:15.317Z,13.87
2022-10-24T21:07:17.950Z,13.83
2022-10-24T21:09:20.554Z,13.76
2022-10-24T21:11:26.306Z,13.75
2022-10-24T21:13:28.923Z,13.76
2022-10-24T21:15:33.010Z,13.77
2022-10-24T21:17:35.658Z,13.79
2022-10-24T21:19:38.309Z,13.80
2022-10-24T21:21:41.338Z,13.82
2022-10-24T21:23:44.133Z,13.82
2022-10-24T21:25:46.698Z,13.80
2022-10-24T21:27:49.627Z,13.73
2022-10-24T21:29:52.431Z,13.74
2022-10-24T21:31:56.425Z,13.73
2022-10-24T21:33:59.240Z,13.70
2022-10-24T21:36:06.039Z,13.68
2022-10-24T21:38:08.852Z,13.68
2022-10-24T21:40:12.315Z,13.67
2022-10-24T21:42:14.968Z,13.68
2022-10-24T21:44:17.581Z,13.68
2022-10-24T21:46:21.678Z,13.65
2022-10-24T21:48:25.612Z,13.64
2022-10-24T21:50:28.306Z,13.58
2022-10-24T21:52:30.877Z,13.54
2022-10-24T21:54:34.387Z,13.55
2022-10-24T21:56:37.669Z,13.63
2022-10-24T21:58:41.017Z,13.54
2022-10-24T22:00:43.564Z,13.47
2022-10-24T22:02:46.655Z,13.44
2022-10-24T22:04:50.770Z,13.41
2022-10-24T22:06:54.167Z,13.33
2022-10-24T22:08:57.353Z,13.32
2022-10-24T22:11:01.316Z,13.25
2022-10-24T22:13:03.927Z,13.21
2022-10-24T22:15:07.369Z,13.17
2022-10-24T22:17:09.948Z,13.14
2022-10-24T22:19:14.072Z,13.09
2022-10-24T22:21:24.857Z,13.09
2022-10-24T22:23:28.156Z,13.21
2022-10-24T22:25:30.792Z,13.18
2022-10-24T22:27:33.358Z,13.16
2022-10-24T22:29:35.949Z,13.05
2022-10-24T22:31:39.448Z,13.03
2022-10-24T22:33:43.435Z,13.05
2022-10-24T22:35:48.092Z,12.98
2022-10-24T22:37:52.736Z,12.91
2022-10-24T22:39:55.779Z,12.89
2022-10-24T22:41:58.800Z,12.92
2022-10-24T22:44:01.937Z,12.95
2022-10-24T22:46:16.856Z,12.91
2022-10-24T22:48:23.269Z,12.91
2022-10-24T22:50:46.234Z,12.89
2022-10-24T22:52:49.474Z,12.91
2022-10-24T22:54:54.144Z,12.90
2022-10-24T22:56:57.412Z,12.89
2022-10-24T22:59:01.170Z,12.89
2022-10-24T23:01:08.577Z,12.85
2022-10-24T23:03:23.189Z,12.87
2022-10-24T23:05:30.913Z,12.86
2022-10-24T23:07:43.598Z,12.89
2022-10-24T23:09:46.260Z,12.83
2022-10-24T23:11:50.830Z,12.86
2022-10-24T23:13:53.990Z,12.85
2022-10-24T23:16:03.297Z,12.82
2022-10-24T23:18:08.439Z,12.84
2022-10-24T23:20:20.982Z,12.83
2022-10-24T23:22:25.317Z,12.80
2022-10-24T23:24:28.464Z,12.83
2022-10-24T23:26:37.400Z,12.82
2022-10-24T23:28:46.813Z,12.84
2022-10-24T23:30:49.990Z,12.83
2022-10-24T23:32:53.491Z,12.84
2022-10-24T23:34:57.736Z,12.81
2022-10-24T23:37:03.585Z,12.82
2022-10-24T23:39:06.826Z,12.82
2022-10-24T23:41:11.462Z,12.80
2022-10-24T23:43:17.827Z,12.77
2022-10-24T23:45:23.873Z,12.79
2022-10-24T23:47:48.618Z,12.79
2022-10-24T23:49:59.041Z,12.70
2022-10-24T23:52:09.091Z,12.67
2022-10-24T23:54:13.620Z,12.58
2022-10-24T23:56:17.344Z,12.57
2022-10-24T23:58:19.966Z,12.42
